createdAt,value
2023-05-10T00:01:31.956Z,9.60
2023-05-10T00:03:59.383Z,9.58
2023-05-10T00:06:27.098Z,9.48
2023-05-10T00:08:54.537Z,9.49
2023-05-10T00:11:23.191Z,9.43
2023-05-10T00:13:50.808Z,9.42
2023-05-10T00:16:18.312Z,9.40
2023-05-10T00:18:47.810Z,9.38
2023-05-10T00:21:21.033Z,9.33
2023-05-10T00:23:48.305Z,9.28
2023-05-10T00:26:16.158Z,9.25
2023-05-10T00:28:43.702Z,9.16
2023-05-10T00:31:11.271Z,9.20
2023-05-10T00:33:38.678Z,9.05
2023-05-10T00:36:08.694Z,9.06
2023-05-10T00:38:38.324Z,9.03
2023-05-10T00:41:05.797Z,9.04
2023-05-10T00:43:33.034Z,9.05
2023-05-10T00:46:00.752Z,8.96
2023-05-10T00:48:30.519Z,8.88
2023-05-10T00:50:58.021Z,8.93
2023-05-10T00:53:26.082Z,8.90
2023-05-10T00:55:53.585Z,8.86
2023-05-10T00:58:22.008Z,8.84
2023-05-10T01:00:49.986Z,8.82
2023-05-10T01:03:19.675Z,8.78
2023-05-10T01:05:46.985Z,8.74
2023-05-10T01:08:14.564Z,8.68
2023-05-10T01:10:44.630Z,8.63
2023-05-10T01:13:12.695Z,8.65
2023-05-10T01:15:41.145Z,8.54
2023-05-10T01:18:10.207Z,8.55
2023-05-10T01:20:44.661Z,8.58
2023-05-10T01:23:46.805Z,8.50
2023-05-10T01:26:19.866Z,8.42
2023-05-10T01:29:12.884Z,8.44
2023-05-10T01:32:08.592Z,8.31
2023-05-10T01:34:45.856Z,8.28
2023-05-10T01:37:21.575Z,8.28
2023-05-10T01:40:01.768Z,8.23
2023-05-10T01:42:38.001Z,8.19
2023-05-10T01:45:37.321Z,8.13
2023-05-10T01:48:11.597Z,8.17
2023-05-10T01:50:44.996Z,8.11
2023-05-10T01:53:14.201Z,8.13
2023-05-10T01:55:53.887Z,8.16
2023-05-10T01:58:31.917Z,8.06
2023-05-10T02:01:02.843Z,8.08
2023-05-10T02:03:33.583Z,8.16
2023-05-10T02:06:01.312Z,8.02
2023-05-10T02:08:29.285Z,8.09
2023-05-10T02:10:58.334Z,8.05
2023-05-10T02:13:28.763Z,8.05
2023-05-10T02:15:58.323Z,8.03
2023-05-10T02:18:28.315Z,8.03
2023-05-10T02:20:59.297Z,8.10
2023-05-10T02:23:27.560Z,8.08
2023-05-10T02:25:57.775Z,8.08
2023-05-10T02:28:27.303Z,8.12
2023-05-10T02:30:56.651Z,8.07
2023-05-10T02:33:26.037Z,8.06
2023-05-10T02:35:54.880Z,7.99
2023-05-10T02:38:24.031Z,7.97
2023-05-10T02:40:54.009Z,7.99
2023-05-10T02:43:24.442Z,7.97
2023-05-10T02:45:52.909Z,7.98
2023-05-10T02:48:20.251Z,7.95
2023-05-10T02:50:52.629Z,7.93
2023-05-10T02:53:29.976Z,7.90
2023-05-10T02:56:01.872Z,7.87
2023-05-10T02:58:29.735Z,7.86
2023-05-10T03:00:56.958Z,7.83
2023-05-10T03:03:24.346Z,7.79
2023-05-10T03:05:51.874Z,7.81
2023-05-10T03:08:19.223Z,7.86
2023-05-10T03:11:00.392Z,7.83
2023-05-10T03:13:37.225Z,7.75
2023-05-10T03:16:15.952Z,7.80
2023-05-10T03:18:52.116Z,7.79
2023-05-10T03:21:23.495Z,7.83
2023-05-10T03:23:54.963Z,7.76
2023-05-10T03:26:27.412Z,7.79
2023-05-10T03:28:55.901Z,7.82
2023-05-10T03:31:23.748Z,7.77
2023-05-10T03:33:53.427Z,7.85
2023-05-10T03:36:22.190Z,7.84
2023-05-10T03:38:50.747Z,7.82
2023-05-10T03:41:18.077Z,7.93
2023-05-10T03:43:47.271Z,7.84
2023-05-10T03:46:14.750Z,7.93
2023-05-10T03:48:42.264Z,7.99
2023-05-10T03:51:09.724Z,8.00
2023-05-10T03:53:38.144Z,8.05
2023-05-10T03:56:05.778Z,8.04
2023-05-10T03:58:33.145Z,8.07
2023-05-10T04:01:06.745Z,8.10
2023-05-10T04:03:34.118Z,8.18
2023-05-10T04:06:02.837Z,8.18
2023-05-10T04:08:36.249Z,8.24
2023-05-10T04:11:10.968Z,8.28
2023-05-10T04:13:38.552Z,8.28
2023-05-10T04:16:06.345Z,8.36
2023-05-10T04:18:33.947Z,8.41
2023-05-10T04:21:02.530Z,8.43
2023-05-10T04:23:29.834Z,8.47
2023-05-10T04:26:03.932Z,8.55
2023-05-10T04:28:31.337Z,8.64
2023-05-10T04:31:09.267Z,8.75
2023-05-10T04:33:37.012Z,8.74
2023-05-10T04:36:04.636Z,8.81
2023-05-10T04:38:32.075Z,8.83
2023-05-10T04:41:08.034Z,8.95
2023-05-10T04:43:35.227Z,9.07
2023-05-10T04:46:03.846Z,9.10
2023-05-10T04:48:31.444Z,9.21
2023-05-10T04:50:59.101Z,9.25
2023-05-10T04:53:26.625Z,9.39
2023-05-10T04:55:53.972Z,9.48
2023-05-10T04:58:21.492Z,9.58
2023-05-10T05:00:49.940Z,9.67
2023-05-10T05:03:17.466Z,9.77
2023-05-10T05:05:45.985Z,9.87
2023-05-10T05:08:14.112Z,9.94
2023-05-10T05:10:43.398Z,10.05
2023-05-10T05:13:10.807Z,10.04
2023-05-10T05:15:38.157Z,10.18
2023-05-10T05:18:05.735Z,10.35
2023-05-10T05:20:36.209Z,10.34
2023-05-10T05:23:03.784Z,10.51
2023-05-10T05:25:32.241Z,10.55
2023-05-10T05:28:00.707Z,10.72
2023-05-10T05:30:28.142Z,10.84
2023-05-10T05:32:55.593Z,10.91
2023-05-10T05:35:22.976Z,11.00
2023-05-10T05:37:50.571Z,11.17
2023-05-10T05:40:17.983Z,11.25
2023-05-10T05:42:47.666Z,11.46
2023-05-10T05:45:17.138Z,11.51
2023-05-10T05:47:44.466Z,11.59
2023-05-10T05:50:11.970Z,11.66
2023-05-10T05:52:39.309Z,11.74
2023-05-10T05:55:06.879Z,11.71
2023-05-10T05:57:34.470Z,11.74
2023-05-10T06:00:04.074Z,11.87
2023-05-10T06:02:31.220Z,11.81
2023-05-10T06:04:59.741Z,11.98
2023-05-10T06:07:29.221Z,12.20
2023-05-10T06:09:56.677Z,12.34
2023-05-10T06:12:24.031Z,12.34
2023-05-10T06:14:51.514Z,12.43
2023-05-10T06:17:19.370Z,12.67
2023-05-10T06:19:46.444Z,12.75
2023-05-10T06:22:13.922Z,12.82
2023-05-10T06:24:42.744Z,12.96
2023-05-10T06:27:09.721Z,13.05
2023-05-10T06:29:36.832Z,13.12
2023-05-10T06:32:05.053Z,13.17
2023-05-10T06:34:32.895Z,13.20
2023-05-10T06:37:00.225Z,13.30
2023-05-10T06:39:27.825Z,13.40
2023-05-10T06:41:55.689Z,13.52
2023-05-10T06:44:23.134Z,13.65
2023-05-10T06:46:51.331Z,13.61
2023-05-10T06:49:18.549Z,13.61
2023-05-10T06:51:46.852Z,13.81
2023-05-10T06:54:13.926Z,14.07
2023-05-10T06:56:41.325Z,14.22
2023-05-10T06:59:08.911Z,14.13
2023-05-10T07:01:36.355Z,14.25
2023-05-10T07:04:03.774Z,14.44
2023-05-10T07:06:35.228Z,14.59
2023-05-10T07:09:02.901Z,14.55
2023-05-10T07:11:37.390Z,14.71
2023-05-10T07:14:04.825Z,14.55
2023-05-10T07:16:32.397Z,14.49
2023-05-10T07:19:06.688Z,14.57
2023-05-10T07:21:33.986Z,14.55
2023-05-10T07:24:02.159Z,14.68
2023-05-10T07:26:35.374Z,14.66
2023-05-10T07:29:03.720Z,14.94
2023-05-10T07:31:32.040Z,15.04
2023-05-10T07:34:05.937Z,15.28
2023-05-10T07:36:33.787Z,15.15
2023-05-10T07:39:02.286Z,15.30
2023-05-10T07:41:29.444Z,15.08
2023-05-10T07:43:56.911Z,15.36
2023-05-10T07:46:24.306Z,15.60
2023-05-10T07:48:53.880Z,15.68
2023-05-10T07:51:21.244Z,15.51
2023-05-10T07:53:50.878Z,15.37
2023-05-10T07:56:23.449Z,15.56
2023-05-10T07:58:51.039Z,15.76
2023-05-10T08:01:18.334Z,15.94
2023-05-10T08:03:46.026Z,15.96
2023-05-10T08:06:13.791Z,15.98
2023-05-10T08:08:41.686Z,15.76
2023-05-10T08:11:09.111Z,15.77
2023-05-10T08:13:36.578Z,15.60
2023-05-10T08:16:04.026Z,15.65
2023-05-10T08:18:31.576Z,15.97
2023-05-10T08:21:00.690Z,16.11
2023-05-10T08:23:27.828Z,16.14
2023-05-10T08:25:56.528Z,16.24
2023-05-10T08:28:26.674Z,16.56
2023-05-10T08:30:57.151Z,16.65
2023-05-10T08:33:27.189Z,16.70
2023-05-10T08:35:55.492Z,16.85
2023-05-10T08:38:24.580Z,16.88
2023-05-10T08:41:00.058Z,16.96
2023-05-10T08:43:33.234Z,16.91
2023-05-10T08:46:06.578Z,16.74
2023-05-10T08:48:36.094Z,16.74
2023-05-10T08:51:05.045Z,16.68
2023-05-10T08:53:34.391Z,16.39
2023-05-10T08:56:03.674Z,16.59
2023-05-10T08:58:32.064Z,16.83
2023-05-10T09:01:00.354Z,17.14
2023-05-10T09:03:40.440Z,17.35
2023-05-10T09:06:08.246Z,17.47
2023-05-10T09:08:37.994Z,16.91
2023-05-10T09:11:05.464Z,16.62
2023-05-10T09:13:34.128Z,16.80
2023-05-10T09:16:09.850Z,16.95
2023-05-10T09:18:47.778Z,16.94
2023-05-10T09:21:15.152Z,16.94
2023-05-10T09:23:51.444Z,17.16
2023-05-10T09:26:24.340Z,17.04
2023-05-10T09:28:54.376Z,17.34
2023-05-10T09:31:21.608Z,17.83
2023-05-10T09:33:50.715Z,18.02
2023-05-10T09:36:18.590Z,18.06
2023-05-10T09:38:54.437Z,18.26
2023-05-10T09:41:23.743Z,18.32
2023-05-10T09:43:51.251Z,18.81
2023-05-10T09:46:27.531Z,18.51
2023-05-10T09:48:55.082Z,18.16
2023-05-10T09:51:23.844Z,18.06
2023-05-10T09:54:14.193Z,17.64
2023-05-10T09:56:42.059Z,17.54
2023-05-10T09:59:19.932Z,17.62
2023-05-10T10:01:53.853Z,17.53
2023-05-10T10:04:22.690Z,17.45
2023-05-10T10:07:06.541Z,17.70
2023-05-10T10:09:36.215Z,17.74
2023-05-10T10:12:05.807Z,18.10
2023-05-10T10:14:35.803Z,18.16
2023-05-10T10:19:36.883Z,17.86
2023-05-10T10:22:07.087Z,17.53
2023-05-10T10:24:43.459Z,17.97
2023-05-10T10:27:26.193Z,18.25
2023-05-10T10:30:03.488Z,18.30
2023-05-10T10:32:54.107Z,18.92
2023-05-10T10:35:21.631Z,18.89
2023-05-10T10:37:51.427Z,19.00
2023-05-10T10:40:33.662Z,19.19
2023-05-10T10:43:27.939Z,19.51
2023-05-10T10:46:12.799Z,19.67
2023-05-10T10:49:11.303Z,18.60
2023-05-10T10:51:42.087Z,18.57
2023-05-10T10:54:13.648Z,18.53
2023-05-10T10:56:40.953Z,18.25
2023-05-10T10:59:09.753Z,18.00
2023-05-10T11:01:37.468Z,18.12
2023-05-10T11:04:04.754Z,18.50
2023-05-10T11:06:34.780Z,18.29
2023-05-10T11:09:12.872Z,18.41
2023-05-10T11:12:00.391Z,18.57
2023-05-10T11:14:28.241Z,18.33
2023-05-10T11:16:58.398Z,18.48
2023-05-10T11:19:32.045Z,18.56
2023-05-10T11:22:05.673Z,18.76
2023-05-10T11:24:34.640Z,18.88
2023-05-10T11:27:02.482Z,19.00
2023-05-10T11:29:30.727Z,19.49
2023-05-10T11:32:01.183Z,19.84
2023-05-10T11:34:31.724Z,19.76
2023-05-10T11:36:59.645Z,19.35
2023-05-10T11:39:32.151Z,18.97
2023-05-10T11:42:00.416Z,18.97
2023-05-10T11:44:34.652Z,19.86
2023-05-10T11:47:08.520Z,20.23
2023-05-10T11:49:36.181Z,20.71
2023-05-10T11:52:10.562Z,20.22
2023-05-10T11:54:38.256Z,20.48
2023-05-10T11:57:05.481Z,20.59
2023-05-10T11:59:33.070Z,20.03
2023-05-10T12:02:00.537Z,19.82
2023-05-10T12:04:30.871Z,19.67
2023-05-10T12:06:58.437Z,19.42
2023-05-10T12:09:39.737Z,19.58
2023-05-10T12:12:11.292Z,19.98
2023-05-10T12:14:39.593Z,20.09
2023-05-10T12:17:06.633Z,20.98
2023-05-10T12:19:40.434Z,21.48
2023-05-10T12:22:07.548Z,20.91
2023-05-10T12:24:39.425Z,21.57
2023-05-10T12:29:56.617Z,21.97
2023-05-10T12:32:39.448Z,21.54
2023-05-10T12:35:07.466Z,21.39
2023-05-10T12:37:39.675Z,21.92
2023-05-10T12:40:09.380Z,22.03
2023-05-10T12:42:37.933Z,21.91
2023-05-10T12:45:06.802Z,22.45
2023-05-10T12:47:34.740Z,21.51
2023-05-10T12:50:02.912Z,21.56
2023-05-10T12:52:32.795Z,21.28
2023-05-10T12:55:01.300Z,22.05
2023-05-10T12:57:29.084Z,22.13
2023-05-10T12:59:56.905Z,22.47
2023-05-10T13:02:24.392Z,21.70
2023-05-10T13:04:51.978Z,22.16
2023-05-10T13:07:19.250Z,22.91
2023-05-10T13:09:46.368Z,23.35
2023-05-10T13:12:13.645Z,22.97
2023-05-10T13:14:41.831Z,22.93
2023-05-10T13:17:09.288Z,23.23
2023-05-10T13:19:36.507Z,23.53
2023-05-10T13:22:04.288Z,22.60
2023-05-10T13:24:31.562Z,23.07
2023-05-10T13:27:01.162Z,24.61
2023-05-10T13:29:28.403Z,24.91
2023-05-10T13:31:56.895Z,25.20
2023-05-10T13:34:25.403Z,24.34
2023-05-10T13:36:54.145Z,24.21
2023-05-10T13:39:22.054Z,24.42
2023-05-10T13:41:50.519Z,24.47
2023-05-10T13:44:17.698Z,25.37
2023-05-10T13:46:45.847Z,26.10
2023-05-10T13:49:13.335Z,26.72
2023-05-10T13:51:40.690Z,27.25
2023-05-10T13:54:08.523Z,26.54
2023-05-10T13:56:36.026Z,25.35
2023-05-10T13:59:03.296Z,24.79
2023-05-10T14:01:36.583Z,24.90
2023-05-10T14:04:03.739Z,25.68
2023-05-10T14:06:31.859Z,25.21
2023-05-10T14:08:59.936Z,24.14
2023-05-10T14:11:26.974Z,23.56
2023-05-10T14:13:54.448Z,23.33
2023-05-10T14:16:23.065Z,23.41
2023-05-10T14:18:52.561Z,23.76
2023-05-10T14:21:19.862Z,24.01
2023-05-10T14:23:47.453Z,24.00
2023-05-10T14:26:14.715Z,23.59
2023-05-10T14:28:42.413Z,22.91
2023-05-10T14:31:10.606Z,22.67
2023-05-10T14:33:38.170Z,22.48
2023-05-10T14:36:07.386Z,23.17
2023-05-10T14:38:34.621Z,22.21
2023-05-10T14:41:02.556Z,22.42
2023-05-10T14:43:30.193Z,22.24
2023-05-10T14:45:57.460Z,22.74
2023-05-10T14:48:25.034Z,22.86
2023-05-10T14:50:53.934Z,22.56
2023-05-10T14:53:21.481Z,22.50
2023-05-10T14:55:48.781Z,22.93
2023-05-10T14:58:16.288Z,23.90
2023-05-10T15:00:45.866Z,24.16
2023-05-10T15:03:13.904Z,23.63
2023-05-10T15:05:41.812Z,23.61
2023-05-10T15:08:10.454Z,23.15
2023-05-10T15:10:38.081Z,23.41
2023-05-10T15:13:06.804Z,22.71
2023-05-10T15:15:34.192Z,22.28
2023-05-10T15:18:01.636Z,21.92
2023-05-10T15:20:30.066Z,21.54
2023-05-10T15:22:57.738Z,21.63
2023-05-10T15:25:25.066Z,21.67
2023-05-10T15:27:52.560Z,22.60
2023-05-10T15:30:21.251Z,22.99
2023-05-10T15:32:50.700Z,22.31
2023-05-10T15:35:18.997Z,21.78
2023-05-10T15:37:49.094Z,21.61
2023-05-10T15:40:17.034Z,21.66
2023-05-10T15:42:45.707Z,21.92
2023-05-10T15:45:16.504Z,21.95
2023-05-10T15:47:49.711Z,21.64
2023-05-10T15:50:17.884Z,21.57
2023-05-10T15:52:45.283Z,21.78
2023-05-10T15:55:13.673Z,21.83
2023-05-10T15:57:41.913Z,21.67
2023-05-10T16:00:11.262Z,21.85
2023-05-10T16:02:38.465Z,21.62
2023-05-10T16:05:06.961Z,20.92
2023-05-10T16:07:34.482Z,20.98
2023-05-10T16:10:04.526Z,21.28
2023-05-10T16:12:31.852Z,21.28
2023-05-10T16:14:59.285Z,21.20
2023-05-10T16:17:26.896Z,21.29
2023-05-10T16:19:56.329Z,21.25
2023-05-10T16:22:27.400Z,21.31
2023-05-10T16:24:54.872Z,21.50
2023-05-10T16:27:22.070Z,21.12
2023-05-10T16:29:49.562Z,21.00
2023-05-10T16:32:17.459Z,20.94
2023-05-10T16:34:44.605Z,20.76
2023-05-10T16:37:17.755Z,20.83
2023-05-10T16:39:51.120Z,20.81
2023-05-10T16:42:19.091Z,20.76
2023-05-10T16:44:47.599Z,20.78
2023-05-10T16:47:15.108Z,20.62
2023-05-10T16:49:50.215Z,20.78
2023-05-10T16:52:17.703Z,20.81
2023-05-10T16:54:46.176Z,20.59
2023-05-10T16:57:13.611Z,20.47
2023-05-10T16:59:41.038Z,20.33
2023-05-10T17:02:08.258Z,20.35
2023-05-10T17:04:36.579Z,20.28
2023-05-10T17:07:05.057Z,20.26
2023-05-10T17:09:32.522Z,20.35
2023-05-10T17:12:00.040Z,20.17
2023-05-10T17:14:27.591Z,20.20
2023-05-10T17:16:56.052Z,20.39
2023-05-10T17:19:26.155Z,20.57
2023-05-10T17:21:53.960Z,20.55
2023-05-10T17:24:21.381Z,20.49
2023-05-10T17:26:48.856Z,20.45
2023-05-10T17:29:16.507Z,20.43
2023-05-10T17:31:43.736Z,20.57
2023-05-10T17:34:11.245Z,20.63
2023-05-10T17:36:38.652Z,20.68
2023-05-10T17:39:11.824Z,20.76
2023-05-10T17:41:39.264Z,20.69
2023-05-10T17:44:06.674Z,20.58
2023-05-10T17:46:33.904Z,20.56
2023-05-10T17:49:01.148Z,20.51
2023-05-10T17:51:29.162Z,20.49
2023-05-10T17:53:57.455Z,20.38
2023-05-10T17:56:24.779Z,20.30
2023-05-10T17:58:53.965Z,20.18
2023-05-10T18:01:21.441Z,20.00
2023-05-10T18:03:49.870Z,19.97
2023-05-10T18:06:17.023Z,19.88
2023-05-10T18:08:45.082Z,19.79
2023-05-10T18:11:12.272Z,19.57
2023-05-10T18:13:39.911Z,19.47
2023-05-10T18:16:09.126Z,19.32
2023-05-10T18:18:37.137Z,19.14
2023-05-10T18:21:04.712Z,19.04
2023-05-10T18:26:00.082Z,18.89
2023-05-10T18:28:27.873Z,18.70
2023-05-10T18:30:54.995Z,18.61
2023-05-10T18:33:22.518Z,18.49
2023-05-10T18:35:50.166Z,18.31
2023-05-10T18:38:23.953Z,18.16
2023-05-10T18:40:58.003Z,18.03
2023-05-10T18:43:31.870Z,17.93
2023-05-10T18:45:58.946Z,17.76
2023-05-10T18:48:26.340Z,17.74
2023-05-10T18:50:54.472Z,17.59
2023-05-10T18:53:23.293Z,17.48
2023-05-10T18:55:58.832Z,17.43
2023-05-10T18:58:29.554Z,17.35
2023-05-10T19:00:58.947Z,17.35
2023-05-10T19:03:26.819Z,17.35
2023-05-10T19:06:03.005Z,17.28
2023-05-10T19:08:31.016Z,17.21
2023-05-10T19:10:58.709Z,17.09
2023-05-10T19:13:28.683Z,17.05
2023-05-10T19:16:12.792Z,16.94
2023-05-10T19:18:41.095Z,16.86
2023-05-10T19:21:11.261Z,16.80
2023-05-10T19:23:43.694Z,16.83
2023-05-10T19:26:12.882Z,16.86
2023-05-10T19:28:41.362Z,16.78
2023-05-10T19:31:22.017Z,16.71
2023-05-10T19:33:50.097Z,16.61
2023-05-10T19:36:33.318Z,16.72
2023-05-10T19:39:06.837Z,16.72
2023-05-10T19:41:34.717Z,16.60
2023-05-10T19:44:02.587Z,16.67
2023-05-10T19:46:30.066Z,16.69
2023-05-10T19:48:58.325Z,16.67
2023-05-10T19:51:29.260Z,16.60
2023-05-10T19:53:58.479Z,16.48
2023-05-10T19:56:27.485Z,16.47
2023-05-10T19:58:55.760Z,16.50
2023-05-10T20:01:29.601Z,16.45
2023-05-10T20:03:57.292Z,16.52
2023-05-10T20:06:26.132Z,16.39
2023-05-10T20:08:53.812Z,16.33
2023-05-10T20:11:28.002Z,16.39
2023-05-10T20:13:57.824Z,16.44
2023-05-10T20:16:28.605Z,16.47
2023-05-10T20:18:56.267Z,16.35
2023-05-10T20:21:24.255Z,16.23
2023-05-10T20:23:51.550Z,16.23
2023-05-10T20:26:18.817Z,16.17
2023-05-10T20:28:46.844Z,16.14
2023-05-10T20:31:14.372Z,16.10
2023-05-10T20:33:42.019Z,16.11
2023-05-10T20:36:10.062Z,16.10
2023-05-10T20:38:37.794Z,16.06
2023-05-10T20:41:05.247Z,16.03
2023-05-10T20:43:33.168Z,15.94
2023-05-10T20:46:05.615Z,15.98
2023-05-10T20:48:33.460Z,15.97
2023-05-10T20:51:03.832Z,15.94
2023-05-10T20:53:31.340Z,15.88
2023-05-10T20:56:00.557Z,15.73
2023-05-10T20:58:28.224Z,15.71
2023-05-10T21:00:55.591Z,15.67
2023-05-10T21:03:23.094Z,15.77
2023-05-10T21:05:51.526Z,15.76
2023-05-10T21:08:19.112Z,15.81
2023-05-10T21:10:46.826Z,15.74
2023-05-10T21:13:14.025Z,15.80
2023-05-10T21:15:48.094Z,15.71
2023-05-10T21:18:15.700Z,15.78
2023-05-10T21:20:42.966Z,15.72
2023-05-10T21:23:18.826Z,15.77
2023-05-10T21:25:46.226Z,15.83
2023-05-10T21:28:14.534Z,15.84
2023-05-10T21:30:42.159Z,15.82
2023-05-10T21:33:09.562Z,15.78
2023-05-10T21:35:39.609Z,15.73
2023-05-10T21:38:06.957Z,15.76
2023-05-10T21:40:34.519Z,15.74
2023-05-10T21:43:02.935Z,15.74
2023-05-10T21:45:33.038Z,15.74
2023-05-10T21:48:00.890Z,15.67
2023-05-10T21:50:28.893Z,15.63
2023-05-10T21:52:56.894Z,15.63
2023-05-10T21:55:24.368Z,15.64
2023-05-10T21:57:51.888Z,15.65
2023-05-10T22:00:20.538Z,15.68
2023-05-10T22:02:47.772Z,15.63
2023-05-10T22:05:15.538Z,15.62
2023-05-10T22:07:42.617Z,15.58
2023-05-10T22:10:16.520Z,15.47
2023-05-10T22:12:44.094Z,15.45
2023-05-10T22:15:11.887Z,15.36
2023-05-10T22:17:40.176Z,15.36
2023-05-10T22:20:08.792Z,15.38
2023-05-10T22:22:36.960Z,15.28
2023-05-10T22:25:08.888Z,15.24
2023-05-10T22:27:38.127Z,15.20
2023-05-10T22:30:07.386Z,15.07
2023-05-10T22:32:36.626Z,14.94
2023-05-10T22:35:04.563Z,14.97
2023-05-10T22:37:32.002Z,14.87
2023-05-10T22:39:59.006Z,14.86
2023-05-10T22:42:26.471Z,14.70
2023-05-10T22:44:54.087Z,14.72
2023-05-10T22:47:21.344Z,14.63
2023-05-10T22:49:48.831Z,14.64
2023-05-10T22:52:16.455Z,14.48
2023-05-10T22:54:46.126Z,14.39
2023-05-10T22:57:13.480Z,14.41
2023-05-10T22:59:43.091Z,14.31
2023-05-10T23:02:10.333Z,14.20
2023-05-10T23:04:37.745Z,14.21
2023-05-10T23:07:07.449Z,14.11
2023-05-10T23:09:35.280Z,13.98
2023-05-10T23:12:03.265Z,13.97
2023-05-10T23:14:30.569Z,13.87
2023-05-10T23:16:58.063Z,13.71
2023-05-10T23:19:25.542Z,13.68
2023-05-10T23:21:54.075Z,13.69
2023-05-10T23:24:21.399Z,13.72
2023-05-10T23:26:50.032Z,13.68
2023-05-10T23:29:17.499Z,13.65
2023-05-10T23:31:49.362Z,13.67
2023-05-10T23:34:16.838Z,13.58
2023-05-10T23:36:49.926Z,13.58
2023-05-10T23:39:17.665Z,13.64
2023-05-10T23:41:45.001Z,13.53
2023-05-10T23:44:12.315Z,13.58
2023-05-10T23:46:41.436Z,13.58
2023-05-10T23:49:08.863Z,13.56
2023-05-10T23:51:38.425Z,13.49
2023-05-10T23:54:05.943Z,13.45
2023-05-10T23:56:34.596Z,13.43
2023-05-10T23:59:01.860Z,13.36
